sensor_id;sensor_type;location;lat;lon;timestamp;temperature;humidity
37702;DHT22;23548;51.196;6.838;2023-04-15T00:01:26;7.30;99.90
37702;DHT22;23548;51.196;6.838;2023-04-15T00:03:52;7.30;99.90
37702;DHT22;23548;51.196;6.838;2023-04-15T00:06:21;7.20;99.90
37702;DHT22;23548;51.196;6.838;2023-04-15T00:08:48;7.30;99.90
37702;DHT22;23548;51.196;6.838;2023-04-15T00:11:15;7.20;99.90
37702;DHT22;23548;51.196;6.838;2023-04-15T00:13:42;7.20;99.90
37702;DHT22;23548;51.196;6.838;2023-04-15T00:16:09;7.10;99.90
37702;DHT22;23548;51.196;6.838;2023-04-15T00:18:35;7.10;99.90
37702;DHT22;23548;51.196;6.838;2023-04-15T00:21:02;7.00;99.90
37702;DHT22;23548;51.196;6.838;2023-04-15T00:23:27;6.90;99.90
37702;DHT22;23548;51.196;6.838;2023-04-15T00:25:54;6.90;99.90
37702;DHT22;23548;51.196;6.838;2023-04-15T00:28:20;6.90;99.90
37702;DHT22;23548;51.196;6.838;2023-04-15T00:30:46;6.80;99.90
37702;DHT22;23548;51.196;6.838;2023-04-15T00:33:12;6.80;99.90
37702;DHT22;23548;51.196;6.838;2023-04-15T00:35:39;6.80;99.90
37702;DHT22;23548;51.196;6.838;2023-04-15T00:38:05;6.80;99.90
37702;DHT22;23548;51.196;6.838;2023-04-15T00:40:32;6.70;99.90
37702;DHT22;23548;51.196;6.838;2023-04-15T00:42:58;6.70;99.90
37702;DHT22;23548;51.196;6.838;2023-04-15T00:45:25;6.70;99.90
37702;DHT22;23548;51.196;6.838;2023-04-15T00:47:51;6.70;99.90
37702;DHT22;23548;51.196;6.838;2023-04-15T00:50:17;6.70;99.90
37702;DHT22;23548;51.196;6.838;2023-04-15T00:52:43;6.60;99.90
37702;DHT22;23548;51.196;6.838;2023-04-15T00:55:09;6.70;99.90
37702;DHT22;23548;51.196;6.838;2023-04-15T00:57:36;6.60;99.90
37702;DHT22;23548;51.196;6.838;2023-04-15T01:00:03;6.60;99.90
37702;DHT22;23548;51.196;6.838;2023-04-15T01:02:30;6.60;99.90
37702;DHT22;23548;51.196;6.838;2023-04-15T01:08:06;6.60;99.90
37702;DHT22;23548;51.196;6.838;2023-04-15T01:10:32;6.50;99.90
37702;DHT22;23548;51.196;6.838;2023-04-15T01:12:58;6.50;99.90
37702;DHT22;23548;51.196;6.838;2023-04-15T01:15:24;6.50;99.90
37702;DHT22;23548;51.196;6.838;2023-04-15T01:17:50;6.40;99.90
37702;DHT22;23548;51.196;6.838;2023-04-15T01:20:16;6.40;99.90
37702;DHT22;23548;51.196;6.838;2023-04-15T01:22:42;6.40;99.90
37702;DHT22;23548;51.196;6.838;2023-04-15T01:25:17;6.30;99.90
37702;DHT22;23548;51.196;6.838;2023-04-15T01:27:44;6.40;99.90
37702;DHT22;23548;51.196;6.838;2023-04-15T01:30:10;6.30;99.90
37702;DHT22;23548;51.196;6.838;2023-04-15T01:32:36;6.40;99.90
37702;DHT22;23548;51.196;6.838;2023-04-15T01:35:02;6.30;99.90
37702;DHT22;23548;51.196;6.838;2023-04-15T01:37:28;6.30;99.90
37702;DHT22;23548;51.196;6.838;2023-04-15T01:39:54;6.30;99.90
37702;DHT22;23548;51.196;6.838;2023-04-15T01:42:20;6.30;99.90
37702;DHT22;23548;51.196;6.838;2023-04-15T01:44:46;6.30;99.90
37702;DHT22;23548;51.196;6.838;2023-04-15T01:47:12;6.30;99.90
37702;DHT22;23548;51.196;6.838;2023-04-15T01:49:38;6.30;99.90
37702;DHT22;23548;51.196;6.838;2023-04-15T01:52:04;6.30;99.90
37702;DHT22;23548;51.196;6.838;2023-04-15T01:54:30;6.20;99.90
37702;DHT22;23548;51.196;6.838;2023-04-15T01:56:55;6.20;99.90
37702;DHT22;23548;51.196;6.838;2023-04-15T01:59:21;6.20;99.90
37702;DHT22;23548;51.196;6.838;2023-04-15T02:01:48;6.20;99.90
37702;DHT22;23548;51.196;6.838;2023-04-15T02:04:14;6.10;99.90
37702;DHT22;23548;51.196;6.838;2023-04-15T02:06:44;6.10;99.90
37702;DHT22;23548;51.196;6.838;2023-04-15T02:09:11;6.10;99.90
37702;DHT22;23548;51.196;6.838;2023-04-15T02:11:36;6.00;99.90
37702;DHT22;23548;51.196;6.838;2023-04-15T02:14:03;6.00;99.90
37702;DHT22;23548;51.196;6.838;2023-04-15T02:16:30;6.00;99.90
37702;DHT22;23548;51.196;6.838;2023-04-15T02:18:56;5.90;99.90
37702;DHT22;23548;51.196;6.838;2023-04-15T02:21:22;5.90;99.90
37702;DHT22;23548;51.196;6.838;2023-04-15T02:23:48;5.90;99.90
37702;DHT22;23548;51.196;6.838;2023-04-15T02:26:14;5.80;99.90
37702;DHT22;23548;51.196;6.838;2023-04-15T02:28:39;5.80;99.90
37702;DHT22;23548;51.196;6.838;2023-04-15T02:31:06;5.80;99.90
37702;DHT22;23548;51.196;6.838;2023-04-15T02:33:32;5.80;99.90
37702;DHT22;23548;51.196;6.838;2023-04-15T02:35:58;5.70;99.90
37702;DHT22;23548;51.196;6.838;2023-04-15T02:38:24;5.80;99.90
37702;DHT22;23548;51.196;6.838;2023-04-15T02:40:49;5.80;99.90
37702;DHT22;23548;51.196;6.838;2023-04-15T02:43:16;5.80;99.90
37702;DHT22;23548;51.196;6.838;2023-04-15T02:45:42;5.70;99.90
37702;DHT22;23548;51.196;6.838;2023-04-15T02:48:08;5.80;99.90
37702;DHT22;23548;51.196;6.838;2023-04-15T02:50:34;5.80;99.90
37702;DHT22;23548;51.196;6.838;2023-04-15T02:53:00;5.70;99.90
37702;DHT22;23548;51.196;6.838;2023-04-15T02:55:27;5.70;99.90
37702;DHT22;23548;51.196;6.838;2023-04-15T02:57:53;5.60;99.90
37702;DHT22;23548;51.196;6.838;2023-04-15T03:00:19;5.60;99.90
37702;DHT22;23548;51.196;6.838;2023-04-15T03:02:45;5.60;99.90
37702;DHT22;23548;51.196;6.838;2023-04-15T03:05:12;5.60;99.90
37702;DHT22;23548;51.196;6.838;2023-04-15T03:07:38;5.60;99.90
37702;DHT22;23548;51.196;6.838;2023-04-15T03:10:07;5.60;99.90
37702;DHT22;23548;51.196;6.838;2023-04-15T03:12:33;5.60;99.90
37702;DHT22;23548;51.196;6.838;2023-04-15T03:14:59;5.50;99.90
37702;DHT22;23548;51.196;6.838;2023-04-15T03:17:26;5.50;99.90
37702;DHT22;23548;51.196;6.838;2023-04-15T03:19:52;5.40;99.90
37702;DHT22;23548;51.196;6.838;2023-04-15T03:22:17;5.40;99.90
37702;DHT22;23548;51.196;6.838;2023-04-15T03:24:43;5.30;99.90
37702;DHT22;23548;51.196;6.838;2023-04-15T03:27:09;5.30;99.90
37702;DHT22;23548;51.196;6.838;2023-04-15T03:29:34;5.30;99.90
37702;DHT22;23548;51.196;6.838;2023-04-15T03:32:00;5.30;99.90
37702;DHT22;23548;51.196;6.838;2023-04-15T03:34:26;5.30;99.90
37702;DHT22;23548;51.196;6.838;2023-04-15T03:36:52;5.30;99.90
37702;DHT22;23548;51.196;6.838;2023-04-15T03:39:17;5.30;99.90
37702;DHT22;23548;51.196;6.838;2023-04-15T03:41:43;5.20;99.90
37702;DHT22;23548;51.196;6.838;2023-04-15T03:44:09;5.10;99.90
37702;DHT22;23548;51.196;6.838;2023-04-15T03:46:34;5.10;99.90
37702;DHT22;23548;51.196;6.838;2023-04-15T03:49:01;5.10;99.90
37702;DHT22;23548;51.196;6.838;2023-04-15T03:51:26;5.10;99.90
37702;DHT22;23548;51.196;6.838;2023-04-15T03:53:53;5.10;99.90
37702;DHT22;23548;51.196;6.838;2023-04-15T03:56:18;5.10;99.90
37702;DHT22;23548;51.196;6.838;2023-04-15T03:58:44;5.10;99.90
37702;DHT22;23548;51.196;6.838;2023-04-15T04:01:10;5.10;99.90
37702;DHT22;23548;51.196;6.838;2023-04-15T04:03:36;5.20;99.90
37702;DHT22;23548;51.196;6.838;2023-04-15T04:06:02;5.20;99.90
37702;DHT22;23548;51.196;6.838;2023-04-15T04:08:27;5.10;99.90
37702;DHT22;23548;51.196;6.838;2023-04-15T04:10:53;5.00;99.90
37702;DHT22;23548;51.196;6.838;2023-04-15T04:13:19;4.90;99.90
37702;DHT22;23548;51.196;6.838;2023-04-15T04:15:45;4.90;99.90
37702;DHT22;23548;51.196;6.838;2023-04-15T04:18:10;4.90;99.90
37702;DHT22;23548;51.196;6.838;2023-04-15T04:20:36;5.00;99.90
37702;DHT22;23548;51.196;6.838;2023-04-15T04:23:02;5.00;99.90
37702;DHT22;23548;51.196;6.838;2023-04-15T04:25:28;5.00;99.90
37702;DHT22;23548;51.196;6.838;2023-04-15T04:27:54;5.10;99.90
37702;DHT22;23548;51.196;6.838;2023-04-15T04:30:19;5.20;99.90
37702;DHT22;23548;51.196;6.838;2023-04-15T04:32:45;5.30;99.90
37702;DHT22;23548;51.196;6.838;2023-04-15T04:35:11;5.20;99.90
37702;DHT22;23548;51.196;6.838;2023-04-15T04:37:37;5.20;99.90
37702;DHT22;23548;51.196;6.838;2023-04-15T04:40:03;5.10;99.90
37702;DHT22;23548;51.196;6.838;2023-04-15T04:42:29;5.10;99.90
37702;DHT22;23548;51.196;6.838;2023-04-15T04:44:55;5.10;99.90
37702;DHT22;23548;51.196;6.838;2023-04-15T04:47:21;5.00;99.90
37702;DHT22;23548;51.196;6.838;2023-04-15T04:49:48;5.10;99.90
37702;DHT22;23548;51.196;6.838;2023-04-15T04:52:13;5.10;99.90
37702;DHT22;23548;51.196;6.838;2023-04-15T04:54:39;5.10;99.90
37702;DHT22;23548;51.196;6.838;2023-04-15T04:57:05;5.20;99.90
37702;DHT22;23548;51.196;6.838;2023-04-15T04:59:32;5.30;99.90
37702;DHT22;23548;51.196;6.838;2023-04-15T05:01:58;5.30;99.90
37702;DHT22;23548;51.196;6.838;2023-04-15T05:04:24;5.40;99.90
37702;DHT22;23548;51.196;6.838;2023-04-15T05:06:49;5.40;99.90
37702;DHT22;23548;51.196;6.838;2023-04-15T05:09:15;5.50;99.90
37702;DHT22;23548;51.196;6.838;2023-04-15T05:11:41;5.60;99.90
37702;DHT22;23548;51.196;6.838;2023-04-15T05:14:07;5.90;99.90
37702;DHT22;23548;51.196;6.838;2023-04-15T05:16:33;6.00;99.90
37702;DHT22;23548;51.196;6.838;2023-04-15T05:18:58;6.00;99.90
37702;DHT22;23548;51.196;6.838;2023-04-15T05:21:24;6.10;99.90
37702;DHT22;23548;51.196;6.838;2023-04-15T05:23:50;6.20;99.90
37702;DHT22;23548;51.196;6.838;2023-04-15T05:26:21;6.20;99.90
37702;DHT22;23548;51.196;6.838;2023-04-15T05:28:48;6.20;99.90
37702;DHT22;23548;51.196;6.838;2023-04-15T05:31:15;6.30;99.90
37702;DHT22;23548;51.196;6.838;2023-04-15T05:33:41;6.40;99.90
37702;DHT22;23548;51.196;6.838;2023-04-15T05:36:06;6.50;99.90
37702;DHT22;23548;51.196;6.838;2023-04-15T05:38:32;6.50;99.90
37702;DHT22;23548;51.196;6.838;2023-04-15T05:40:59;6.50;99.90
37702;DHT22;23548;51.196;6.838;2023-04-15T05:43:24;6.60;99.90
37702;DHT22;23548;51.196;6.838;2023-04-15T05:45:51;6.80;99.90
37702;DHT22;23548;51.196;6.838;2023-04-15T05:48:17;7.00;99.90
37702;DHT22;23548;51.196;6.838;2023-04-15T05:50:42;7.20;99.90
37702;DHT22;23548;51.196;6.838;2023-04-15T05:53:08;7.30;99.90
37702;DHT22;23548;51.196;6.838;2023-04-15T05:55:34;7.40;99.90
37702;DHT22;23548;51.196;6.838;2023-04-15T05:58:00;7.50;99.90
37702;DHT22;23548;51.196;6.838;2023-04-15T06:00:25;7.60;99.90
37702;DHT22;23548;51.196;6.838;2023-04-15T06:02:51;7.80;99.90
37702;DHT22;23548;51.196;6.838;2023-04-15T06:05:17;8.00;99.90
37702;DHT22;23548;51.196;6.838;2023-04-15T06:07:43;8.20;99.90
37702;DHT22;23548;51.196;6.838;2023-04-15T06:10:09;8.40;99.90
37702;DHT22;23548;51.196;6.838;2023-04-15T06:12:36;8.60;99.90
37702;DHT22;23548;51.196;6.838;2023-04-15T06:15:01;8.70;99.90
37702;DHT22;23548;51.196;6.838;2023-04-15T06:17:28;8.70;99.90
37702;DHT22;23548;51.196;6.838;2023-04-15T06:19:54;8.80;99.90
37702;DHT22;23548;51.196;6.838;2023-04-15T06:22:21;8.70;99.90
37702;DHT22;23548;51.196;6.838;2023-04-15T06:24:47;8.70;99.90
37702;DHT22;23548;51.196;6.838;2023-04-15T06:27:15;8.80;99.90
37702;DHT22;23548;51.196;6.838;2023-04-15T06:29:41;8.90;99.90
37702;DHT22;23548;51.196;6.838;2023-04-15T06:32:06;9.00;99.90
37702;DHT22;23548;51.196;6.838;2023-04-15T06:34:32;9.20;99.90
37702;DHT22;23548;51.196;6.838;2023-04-15T06:36:58;9.30;99.90
37702;DHT22;23548;51.196;6.838;2023-04-15T06:39:25;9.50;99.90
37702;DHT22;23548;51.196;6.838;2023-04-15T06:41:52;9.60;99.90
37702;DHT22;23548;51.196;6.838;2023-04-15T06:44:18;9.80;99.90
37702;DHT22;23548;51.196;6.838;2023-04-15T06:46:43;10.00;99.90
37702;DHT22;23548;51.196;6.838;2023-04-15T06:49:10;10.20;99.90
37702;DHT22;23548;51.196;6.838;2023-04-15T06:51:36;10.30;99.90
37702;DHT22;23548;51.196;6.838;2023-04-15T06:54:02;10.50;99.90
37702;DHT22;23548;51.196;6.838;2023-04-15T06:56:31;10.70;99.90
37702;DHT22;23548;51.196;6.838;2023-04-15T06:58:57;10.70;99.90
37702;DHT22;23548;51.196;6.838;2023-04-15T07:01:22;11.00;99.90
37702;DHT22;23548;51.196;6.838;2023-04-15T07:03:48;11.30;99.90
37702;DHT22;23548;51.196;6.838;2023-04-15T07:06:14;11.70;99.90
37702;DHT22;23548;51.196;6.838;2023-04-15T07:08:40;11.80;99.90
37702;DHT22;23548;51.196;6.838;2023-04-15T07:11:06;11.90;99.90
37702;DHT22;23548;51.196;6.838;2023-04-15T07:13:33;11.80;99.90
37702;DHT22;23548;51.196;6.838;2023-04-15T07:15:59;11.80;99.90
37702;DHT22;23548;51.196;6.838;2023-04-15T07:18:25;11.70;99.90
37702;DHT22;23548;51.196;6.838;2023-04-15T07:20:51;11.60;99.90
37702;DHT22;23548;51.196;6.838;2023-04-15T07:23:17;11.50;99.90
37702;DHT22;23548;51.196;6.838;2023-04-15T07:25:43;11.70;99.90
37702;DHT22;23548;51.196;6.838;2023-04-15T07:28:08;12.00;99.90
37702;DHT22;23548;51.196;6.838;2023-04-15T07:30:34;11.80;99.90
37702;DHT22;23548;51.196;6.838;2023-04-15T07:33:00;11.80;99.90
37702;DHT22;23548;51.196;6.838;2023-04-15T07:35:27;11.80;99.90
37702;DHT22;23548;51.196;6.838;2023-04-15T07:37:54;11.70;99.90
37702;DHT22;23548;51.196;6.838;2023-04-15T07:40:20;11.50;99.90
37702;DHT22;23548;51.196;6.838;2023-04-15T07:42:47;11.50;99.90
37702;DHT22;23548;51.196;6.838;2023-04-15T07:45:13;11.00;99.90
37702;DHT22;23548;51.196;6.838;2023-04-15T07:47:39;11.30;99.90
37702;DHT22;23548;51.196;6.838;2023-04-15T07:50:07;11.40;99.90
37702;DHT22;23548;51.196;6.838;2023-04-15T07:52:34;11.40;99.90
37702;DHT22;23548;51.196;6.838;2023-04-15T07:55:05;11.50;99.90
37702;DHT22;23548;51.196;6.838;2023-04-15T07:57:31;11.90;99.90
37702;DHT22;23548;51.196;6.838;2023-04-15T07:59:58;12.00;99.90
37702;DHT22;23548;51.196;6.838;2023-04-15T08:02:24;12.30;99.90
37702;DHT22;23548;51.196;6.838;2023-04-15T08:04:50;12.40;99.90
37702;DHT22;23548;51.196;6.838;2023-04-15T08:07:16;12.40;99.90
37702;DHT22;23548;51.196;6.838;2023-04-15T08:09:42;12.40;99.90
37702;DHT22;23548;51.196;6.838;2023-04-15T08:12:08;12.50;99.90
37702;DHT22;23548;51.196;6.838;2023-04-15T08:14:37;12.30;99.90
37702;DHT22;23548;51.196;6.838;2023-04-15T08:17:02;12.10;99.90
37702;DHT22;23548;51.196;6.838;2023-04-15T08:19:29;12.10;99.90
37702;DHT22;23548;51.196;6.838;2023-04-15T08:21:55;12.00;99.90
37702;DHT22;23548;51.196;6.838;2023-04-15T08:24:21;12.20;99.90
37702;DHT22;23548;51.196;6.838;2023-04-15T08:26:47;12.60;99.90
37702;DHT22;23548;51.196;6.838;2023-04-15T08:29:13;13.20;99.90
37702;DHT22;23548;51.196;6.838;2023-04-15T08:31:38;13.20;99.90
37702;DHT22;23548;51.196;6.838;2023-04-15T08:34:04;13.00;99.90
37702;DHT22;23548;51.196;6.838;2023-04-15T08:36:30;12.90;99.90
37702;DHT22;23548;51.196;6.838;2023-04-15T08:38:57;12.70;99.90
37702;DHT22;23548;51.196;6.838;2023-04-15T08:41:24;12.20;99.90
37702;DHT22;23548;51.196;6.838;2023-04-15T08:43:55;12.00;99.90
37702;DHT22;23548;51.196;6.838;2023-04-15T08:46:22;12.20;99.90
37702;DHT22;23548;51.196;6.838;2023-04-15T08:48:48;12.50;99.90
37702;DHT22;23548;51.196;6.838;2023-04-15T08:51:16;12.70;99.90
37702;DHT22;23548;51.196;6.838;2023-04-15T08:53:43;12.30;99.90
37702;DHT22;23548;51.196;6.838;2023-04-15T08:56:11;12.50;99.90
37702;DHT22;23548;51.196;6.838;2023-04-15T08:58:38;12.70;99.90
37702;DHT22;23548;51.196;6.838;2023-04-15T09:01:04;12.90;99.90
37702;DHT22;23548;51.196;6.838;2023-04-15T09:03:31;13.00;99.90
37702;DHT22;23548;51.196;6.838;2023-04-15T09:05:57;13.00;99.90
37702;DHT22;23548;51.196;6.838;2023-04-15T09:08:24;13.30;99.90
37702;DHT22;23548;51.196;6.838;2023-04-15T09:10:49;13.20;99.90
37702;DHT22;23548;51.196;6.838;2023-04-15T09:13:15;13.00;99.90
37702;DHT22;23548;51.196;6.838;2023-04-15T09:15:41;13.10;99.90
37702;DHT22;23548;51.196;6.838;2023-04-15T09:18:07;13.40;99.90
37702;DHT22;23548;51.196;6.838;2023-04-15T09:20:40;13.70;99.90
37702;DHT22;23548;51.196;6.838;2023-04-15T09:23:14;13.30;99.90
37702;DHT22;23548;51.196;6.838;2023-04-15T09:25:40;13.20;99.90
37702;DHT22;23548;51.196;6.838;2023-04-15T09:28:10;13.00;99.90
37702;DHT22;23548;51.196;6.838;2023-04-15T09:30:36;13.00;99.90
37702;DHT22;23548;51.196;6.838;2023-04-15T09:33:03;13.10;99.90
37702;DHT22;23548;51.196;6.838;2023-04-15T09:35:33;13.40;99.90
37702;DHT22;23548;51.196;6.838;2023-04-15T09:38:03;13.50;99.90
37702;DHT22;23548;51.196;6.838;2023-04-15T09:40:38;13.80;99.90
37702;DHT22;23548;51.196;6.838;2023-04-15T09:43:05;13.80;99.90
37702;DHT22;23548;51.196;6.838;2023-04-15T09:45:34;13.90;99.90
37702;DHT22;23548;51.196;6.838;2023-04-15T09:48:23;14.10;99.90
37702;DHT22;23548;51.196;6.838;2023-04-15T09:50:56;14.30;99.90
37702;DHT22;23548;51.196;6.838;2023-04-15T09:53:23;13.90;99.90
37702;DHT22;23548;51.196;6.838;2023-04-15T09:55:54;13.50;99.90
37702;DHT22;23548;51.196;6.838;2023-04-15T09:58:25;13.50;99.90
37702;DHT22;23548;51.196;6.838;2023-04-15T10:00:53;13.30;99.90
37702;DHT22;23548;51.196;6.838;2023-04-15T10:03:26;13.50;99.90
37702;DHT22;23548;51.196;6.838;2023-04-15T10:05:57;13.90;99.90
37702;DHT22;23548;51.196;6.838;2023-04-15T10:08:26;14.20;99.90
37702;DHT22;23548;51.196;6.838;2023-04-15T10:10:53;13.90;99.90
37702;DHT22;23548;51.196;6.838;2023-04-15T10:13:25;13.90;99.90
37702;DHT22;23548;51.196;6.838;2023-04-15T10:16:12;14.00;99.90
37702;DHT22;23548;51.196;6.838;2023-04-15T10:18:43;14.00;99.90
37702;DHT22;23548;51.196;6.838;2023-04-15T10:21:09;14.00;99.90
37702;DHT22;23548;51.196;6.838;2023-04-15T10:23:35;14.20;99.90
37702;DHT22;23548;51.196;6.838;2023-04-15T10:26:03;14.20;99.90
37702;DHT22;23548;51.196;6.838;2023-04-15T10:28:30;14.40;99.90
37702;DHT22;23548;51.196;6.838;2023-04-15T10:30:56;14.30;99.90
37702;DHT22;23548;51.196;6.838;2023-04-15T10:33:24;14.00;99.90
37702;DHT22;23548;51.196;6.838;2023-04-15T10:35:51;14.00;99.90
37702;DHT22;23548;51.196;6.838;2023-04-15T10:38:43;14.00;99.90
37702;DHT22;23548;51.196;6.838;2023-04-15T10:41:25;14.10;99.90
37702;DHT22;23548;51.196;6.838;2023-04-15T10:43:59;13.80;99.90
37702;DHT22;23548;51.196;6.838;2023-04-15T10:49:26;14.10;99.90
37702;DHT22;23548;51.196;6.838;2023-04-15T10:51:57;14.50;99.90
37702;DHT22;23548;51.196;6.838;2023-04-15T11:05:19;14.20;99.90
37702;DHT22;23548;51.196;6.838;2023-04-15T11:07:51;14.20;99.90
37702;DHT22;23548;51.196;6.838;2023-04-15T11:12:52;14.20;99.90
37702;DHT22;23548;51.196;6.838;2023-04-15T11:15:39;13.90;99.90
37702;DHT22;23548;51.196;6.838;2023-04-15T11:20:52;13.90;99.90
37702;DHT22;23548;51.196;6.838;2023-04-15T11:23:32;14.40;99.90
37702;DHT22;23548;51.196;6.838;2023-04-15T11:26:00;14.50;99.90
37702;DHT22;23548;51.196;6.838;2023-04-15T11:28:28;14.60;99.90
37702;DHT22;23548;51.196;6.838;2023-04-15T11:30:54;14.50;99.90
37702;DHT22;23548;51.196;6.838;2023-04-15T11:33:21;14.30;99.90
37702;DHT22;23548;51.196;6.838;2023-04-15T11:35:48;14.30;99.90
37702;DHT22;23548;51.196;6.838;2023-04-15T11:38:15;14.30;99.90
37702;DHT22;23548;51.196;6.838;2023-04-15T11:40:44;14.40;99.90
37702;DHT22;23548;51.196;6.838;2023-04-15T11:43:15;15.20;99.90
37702;DHT22;23548;51.196;6.838;2023-04-15T11:45:53;15.60;99.90
37702;DHT22;23548;51.196;6.838;2023-04-15T11:48:22;14.70;99.90
37702;DHT22;23548;51.196;6.838;2023-04-15T11:50:57;14.20;99.90
37702;DHT22;23548;51.196;6.838;2023-04-15T11:53:35;13.80;99.90
37702;DHT22;23548;51.196;6.838;2023-04-15T11:56:01;13.80;99.90
37702;DHT22;23548;51.196;6.838;2023-04-15T11:58:28;13.70;99.90
37702;DHT22;23548;51.196;6.838;2023-04-15T12:00:56;13.80;99.90
37702;DHT22;23548;51.196;6.838;2023-04-15T12:03:56;14.00;99.90
37702;DHT22;23548;51.196;6.838;2023-04-15T12:06:24;14.10;99.90
37702;DHT22;23548;51.196;6.838;2023-04-15T12:09:14;13.70;99.90
37702;DHT22;23548;51.196;6.838;2023-04-15T12:11:59;13.40;99.90
37702;DHT22;23548;51.196;6.838;2023-04-15T12:14:31;13.10;99.90
37702;DHT22;23548;51.196;6.838;2023-04-15T12:19:38;13.00;99.90
37702;DHT22;23548;51.196;6.838;2023-04-15T12:22:07;12.80;99.90
37702;DHT22;23548;51.196;6.838;2023-04-15T12:24:35;12.60;99.90
37702;DHT22;23548;51.196;6.838;2023-04-15T12:27:08;12.60;99.90
37702;DHT22;23548;51.196;6.838;2023-04-15T12:29:36;12.70;99.90
37702;DHT22;23548;51.196;6.838;2023-04-15T12:32:12;12.80;99.90
37702;DHT22;23548;51.196;6.838;2023-04-15T12:34:39;12.90;99.90
37702;DHT22;23548;51.196;6.838;2023-04-15T12:37:07;12.90;99.90
37702;DHT22;23548;51.196;6.838;2023-04-15T12:39:38;12.80;99.90
37702;DHT22;23548;51.196;6.838;2023-04-15T12:42:06;12.70;99.90
37702;DHT22;23548;51.196;6.838;2023-04-15T12:44:32;12.70;99.90
37702;DHT22;23548;51.196;6.838;2023-04-15T12:46:59;12.70;99.90
37702;DHT22;23548;51.196;6.838;2023-04-15T12:49:25;12.70;99.90
37702;DHT22;23548;51.196;6.838;2023-04-15T12:51:57;12.70;99.90
37702;DHT22;23548;51.196;6.838;2023-04-15T12:54:24;12.80;99.90
37702;DHT22;23548;51.196;6.838;2023-04-15T12:56:51;12.70;99.90
37702;DHT22;23548;51.196;6.838;2023-04-15T12:59:17;12.70;99.90
37702;DHT22;23548;51.196;6.838;2023-04-15T13:01:43;12.80;99.90
37702;DHT22;23548;51.196;6.838;2023-04-15T13:04:09;12.70;99.90
37702;DHT22;23548;51.196;6.838;2023-04-15T13:06:35;12.70;99.90
37702;DHT22;23548;51.196;6.838;2023-04-15T13:09:02;12.50;99.90
37702;DHT22;23548;51.196;6.838;2023-04-15T13:11:29;12.40;99.90
37702;DHT22;23548;51.196;6.838;2023-04-15T13:14:00;12.40;99.90
37702;DHT22;23548;51.196;6.838;2023-04-15T13:16:26;12.20;99.90
37702;DHT22;23548;51.196;6.838;2023-04-15T13:18:51;12.30;99.90
37702;DHT22;23548;51.196;6.838;2023-04-15T13:21:18;12.10;99.90
37702;DHT22;23548;51.196;6.838;2023-04-15T13:23:44;12.20;99.90
37702;DHT22;23548;51.196;6.838;2023-04-15T13:26:10;12.20;99.90
37702;DHT22;23548;51.196;6.838;2023-04-15T13:28:36;12.30;99.90
37702;DHT22;23548;51.196;6.838;2023-04-15T13:31:01;12.40;99.90
37702;DHT22;23548;51.196;6.838;2023-04-15T13:33:28;12.30;99.90
37702;DHT22;23548;51.196;6.838;2023-04-15T13:35:53;12.30;99.90
37702;DHT22;23548;51.196;6.838;2023-04-15T13:38:20;12.30;99.90
37702;DHT22;23548;51.196;6.838;2023-04-15T13:40:45;12.40;99.90
37702;DHT22;23548;51.196;6.838;2023-04-15T13:43:11;12.50;99.90
37702;DHT22;23548;51.196;6.838;2023-04-15T13:45:38;12.70;99.90
37702;DHT22;23548;51.196;6.838;2023-04-15T13:48:03;12.60;99.90
37702;DHT22;23548;51.196;6.838;2023-04-15T13:50:29;12.40;99.90
37702;DHT22;23548;51.196;6.838;2023-04-15T13:52:55;12.30;99.90
37702;DHT22;23548;51.196;6.838;2023-04-15T13:55:21;12.30;99.90
37702;DHT22;23548;51.196;6.838;2023-04-15T13:57:47;12.30;99.90
37702;DHT22;23548;51.196;6.838;2023-04-15T14:00:13;12.30;99.90
37702;DHT22;23548;51.196;6.838;2023-04-15T14:02:39;12.20;99.90
37702;DHT22;23548;51.196;6.838;2023-04-15T14:05:06;12.20;99.90
37702;DHT22;23548;51.196;6.838;2023-04-15T14:07:32;12.20;99.90
37702;DHT22;23548;51.196;6.838;2023-04-15T14:09:59;12.10;99.90
37702;DHT22;23548;51.196;6.838;2023-04-15T14:12:24;12.00;99.90
37702;DHT22;23548;51.196;6.838;2023-04-15T14:14:50;12.00;99.90
37702;DHT22;23548;51.196;6.838;2023-04-15T14:17:16;12.20;99.90
37702;DHT22;23548;51.196;6.838;2023-04-15T14:19:42;12.30;99.90
37702;DHT22;23548;51.196;6.838;2023-04-15T14:22:08;12.40;99.90
37702;DHT22;23548;51.196;6.838;2023-04-15T14:24:34;12.20;99.90
37702;DHT22;23548;51.196;6.838;2023-04-15T14:27:00;12.00;99.90
37702;DHT22;23548;51.196;6.838;2023-04-15T14:29:26;12.00;99.90
37702;DHT22;23548;51.196;6.838;2023-04-15T14:31:52;12.00;99.90
37702;DHT22;23548;51.196;6.838;2023-04-15T14:34:18;12.30;99.90
37702;DHT22;23548;51.196;6.838;2023-04-15T14:36:44;12.30;99.90
37702;DHT22;23548;51.196;6.838;2023-04-15T14:39:10;12.40;99.90
37702;DHT22;23548;51.196;6.838;2023-04-15T14:41:36;12.80;99.90
37702;DHT22;23548;51.196;6.838;2023-04-15T14:44:02;12.90;99.90
37702;DHT22;23548;51.196;6.838;2023-04-15T14:46:28;13.00;99.90
37702;DHT22;23548;51.196;6.838;2023-04-15T14:48:53;13.20;99.90
37702;DHT22;23548;51.196;6.838;2023-04-15T14:51:19;12.80;99.90
37702;DHT22;23548;51.196;6.838;2023-04-15T14:53:45;12.40;99.90
37702;DHT22;23548;51.196;6.838;2023-04-15T14:56:11;12.00;99.90
37702;DHT22;23548;51.196;6.838;2023-04-15T14:58:36;11.70;99.90
37702;DHT22;23548;51.196;6.838;2023-04-15T15:01:03;11.70;99.90
37702;DHT22;23548;51.196;6.838;2023-04-15T15:03:29;11.80;99.90
37702;DHT22;23548;51.196;6.838;2023-04-15T15:05:55;11.80;99.90
37702;DHT22;23548;51.196;6.838;2023-04-15T15:08:22;11.60;99.90
37702;DHT22;23548;51.196;6.838;2023-04-15T15:10:48;11.70;99.90
37702;DHT22;23548;51.196;6.838;2023-04-15T15:13:14;11.70;99.90
37702;DHT22;23548;51.196;6.838;2023-04-15T15:15:40;11.60;99.90
37702;DHT22;23548;51.196;6.838;2023-04-15T15:18:06;11.70;99.90
37702;DHT22;23548;51.196;6.838;2023-04-15T15:20:32;11.70;99.90
37702;DHT22;23548;51.196;6.838;2023-04-15T15:22:59;11.70;99.90
37702;DHT22;23548;51.196;6.838;2023-04-15T15:25:25;11.70;99.90
37702;DHT22;23548;51.196;6.838;2023-04-15T15:27:51;11.70;99.90
37702;DHT22;23548;51.196;6.838;2023-04-15T15:30:16;11.60;99.90
37702;DHT22;23548;51.196;6.838;2023-04-15T15:32:42;11.60;99.90
37702;DHT22;23548;51.196;6.838;2023-04-15T15:35:09;11.50;99.90
37702;DHT22;23548;51.196;6.838;2023-04-15T15:37:36;11.40;99.90
37702;DHT22;23548;51.196;6.838;2023-04-15T15:40:05;11.30;99.90
37702;DHT22;23548;51.196;6.838;2023-04-15T15:42:31;11.30;99.90
37702;DHT22;23548;51.196;6.838;2023-04-15T15:44:58;11.20;99.90
37702;DHT22;23548;51.196;6.838;2023-04-15T15:47:24;11.20;99.90
37702;DHT22;23548;51.196;6.838;2023-04-15T15:49:52;11.20;99.90
37702;DHT22;23548;51.196;6.838;2023-04-15T15:52:18;11.20;99.90
37702;DHT22;23548;51.196;6.838;2023-04-15T15:54:43;11.20;99.90
37702;DHT22;23548;51.196;6.838;2023-04-15T15:57:09;11.20;99.90
37702;DHT22;23548;51.196;6.838;2023-04-15T15:59:35;11.20;99.90
37702;DHT22;23548;51.196;6.838;2023-04-15T16:02:14;11.10;99.90